sensor_id;sensor_type;location;lat;lon;timestamp;pressure;altitude;pressure_sealevel;temperature;humidity
38033;BME280;23841;48.524;1.342;2023-07-20T00:01:45;99352.53;;;23.44;41.83
38033;BME280;23841;48.524;1.342;2023-07-20T00:04:11;99353.53;;;23.43;41.92
38033;BME280;23841;48.524;1.342;2023-07-20T00:06:37;99353.53;;;23.43;42.10
38033;BME280;23841;48.524;1.342;2023-07-20T00:09:06;99355.50;;;23.41;41.93
38033;BME280;23841;48.524;1.342;2023-07-20T00:11:35;99361.78;;;23.42;42.12
38033;BME280;23841;48.524;1.342;2023-07-20T00:14:01;99359.19;;;23.40;42.05
38033;BME280;23841;48.524;1.342;2023-07-20T00:16:27;99353.75;;;23.40;41.90
38033;BME280;23841;48.524;1.342;2023-07-20T00:18:52;99362.84;;;23.39;42.08
38033;BME280;23841;48.524;1.342;2023-07-20T00:21:18;99363.81;;;23.38;42.11
38033;BME280;23841;48.524;1.342;2023-07-20T00:23:44;99368.41;;;23.38;41.91
38033;BME280;23841;48.524;1.342;2023-07-20T00:26:09;99358.53;;;23.37;42.09
38033;BME280;23841;48.524;1.342;2023-07-20T00:28:35;99364.06;;;23.35;42.00
38033;BME280;23841;48.524;1.342;2023-07-20T00:31:00;99368.50;;;23.36;41.75
38033;BME280;23841;48.524;1.342;2023-07-20T00:33:26;99361.34;;;23.35;41.79
38033;BME280;23841;48.524;1.342;2023-07-20T00:35:51;99358.75;;;23.33;42.00
38033;BME280;23841;48.524;1.342;2023-07-20T00:38:17;99359.72;;;23.32;42.01
38033;BME280;23841;48.524;1.342;2023-07-20T00:40:42;99355.31;;;23.31;41.92
38033;BME280;23841;48.524;1.342;2023-07-20T00:43:08;99362.44;;;23.32;41.75
38033;BME280;23841;48.524;1.342;2023-07-20T00:45:34;99367.00;;;23.32;41.80
38033;BME280;23841;48.524;1.342;2023-07-20T00:48:02;99360.84;;;23.30;41.71
38033;BME280;23841;48.524;1.342;2023-07-20T00:50:29;99359.97;;;23.29;41.98
38033;BME280;23841;48.524;1.342;2023-07-20T00:52:56;99350.22;;;23.27;41.89
38033;BME280;23841;48.524;1.342;2023-07-20T00:55:23;99350.22;;;23.27;41.60
38033;BME280;23841;48.524;1.342;2023-07-20T00:57:49;99358.34;;;23.27;41.99
38033;BME280;23841;48.524;1.342;2023-07-20T01:00:15;99360.19;;;23.26;41.67
38033;BME280;23841;48.524;1.342;2023-07-20T01:02:41;99354.91;;;23.25;41.82
38033;BME280;23841;48.524;1.342;2023-07-20T01:05:07;99357.59;;;23.25;41.90
38033;BME280;23841;48.524;1.342;2023-07-20T01:07:37;99347.63;;;23.25;41.58
38033;BME280;23841;48.524;1.342;2023-07-20T01:12:43;99351.41;;;23.23;41.87
38033;BME280;23841;48.524;1.342;2023-07-20T01:15:12;99349.72;;;23.22;41.83
38033;BME280;23841;48.524;1.342;2023-07-20T01:17:39;99342.53;;;23.21;41.74
38033;BME280;23841;48.524;1.342;2023-07-20T01:20:06;99349.81;;;23.20;41.72
38033;BME280;23841;48.524;1.342;2023-07-20T01:22:52;99344.41;;;23.20;41.92
38033;BME280;23841;48.524;1.342;2023-07-20T01:31:38;99334.78;;;23.16;41.69
38033;BME280;23841;48.524;1.342;2023-07-20T01:33:46;99326.72;;;23.14;41.93
38033;BME280;23841;48.524;1.342;2023-07-20T01:36:13;99328.59;;;23.14;41.85
38033;BME280;23841;48.524;1.342;2023-07-20T01:38:42;99324.00;;;23.14;41.96
38033;BME280;23841;48.524;1.342;2023-07-20T01:41:08;99331.28;;;23.14;42.02
38033;BME280;23841;48.524;1.342;2023-07-20T01:43:34;99325.03;;;23.13;41.63
38033;BME280;23841;48.524;1.342;2023-07-20T01:45:59;99321.50;;;23.11;41.65
38033;BME280;23841;48.524;1.342;2023-07-20T01:48:25;99328.00;;;23.09;42.00
38033;BME280;23841;48.524;1.342;2023-07-20T01:50:50;99329.75;;;23.10;41.85
38033;BME280;23841;48.524;1.342;2023-07-20T01:53:15;99324.34;;;23.10;41.96
38033;BME280;23841;48.524;1.342;2023-07-20T01:55:41;99327.16;;;23.08;41.63
38033;BME280;23841;48.524;1.342;2023-07-20T01:58:06;99319.16;;;23.07;41.94
38033;BME280;23841;48.524;1.342;2023-07-20T02:00:32;99320.00;;;23.07;41.79
38033;BME280;23841;48.524;1.342;2023-07-20T02:02:57;99312.88;;;23.06;41.94
38033;BME280;23841;48.524;1.342;2023-07-20T02:05:23;99321.09;;;23.05;41.81
38033;BME280;23841;48.524;1.342;2023-07-20T02:07:48;99318.38;;;23.05;41.76
38033;BME280;23841;48.524;1.342;2023-07-20T02:10:13;99321.97;;;23.05;41.66
38033;BME280;23841;48.524;1.342;2023-07-20T02:12:39;99328.34;;;23.04;41.97
38033;BME280;23841;48.524;1.342;2023-07-20T02:15:05;99322.19;;;23.02;41.73
38033;BME280;23841;48.524;1.342;2023-07-20T02:17:30;99317.63;;;23.02;41.94
38033;BME280;23841;48.524;1.342;2023-07-20T02:19:56;99317.63;;;23.02;41.71
38033;BME280;23841;48.524;1.342;2023-07-20T02:22:22;99316.00;;;23.00;42.01
38033;BME280;23841;48.524;1.342;2023-07-20T02:24:50;99310.06;;;22.95;42.02
38033;BME280;23841;48.524;1.342;2023-07-20T02:27:16;99320.47;;;23.01;42.18
38033;BME280;23841;48.524;1.342;2023-07-20T02:29:41;99310.72;;;22.98;41.87
38033;BME280;23841;48.524;1.342;2023-07-20T02:32:08;99304.44;;;22.98;42.12
38033;BME280;23841;48.524;1.342;2023-07-20T02:34:34;99304.44;;;22.98;41.85
38033;BME280;23841;48.524;1.342;2023-07-20T02:36:59;99310.84;;;22.97;42.16
38033;BME280;23841;48.524;1.342;2023-07-20T02:39:27;99313.53;;;22.97;42.07
38033;BME280;23841;48.524;1.342;2023-07-20T02:41:53;99307.34;;;22.95;42.16
38033;BME280;23841;48.524;1.342;2023-07-20T02:44:19;99304.63;;;22.95;41.94
38033;BME280;23841;48.524;1.342;2023-07-20T02:46:45;99302.94;;;22.94;41.95
38033;BME280;23841;48.524;1.342;2023-07-20T02:49:10;99300.34;;;22.92;42.21
38033;BME280;23841;48.524;1.342;2023-07-20T02:51:36;99299.47;;;22.92;42.12
38033;BME280;23841;48.524;1.342;2023-07-20T02:54:01;99304.03;;;22.91;41.88
38033;BME280;23841;48.524;1.342;2023-07-20T02:56:27;99295.13;;;22.89;41.82
38033;BME280;23841;48.524;1.342;2023-07-20T02:58:52;99299.56;;;22.90;42.06
38033;BME280;23841;48.524;1.342;2023-07-20T03:01:18;99300.53;;;22.89;42.17
38033;BME280;23841;48.524;1.342;2023-07-20T03:03:43;99287.88;;;22.90;42.11
38033;BME280;23841;48.524;1.342;2023-07-20T03:06:15;99287.00;;;22.89;42.15
38033;BME280;23841;48.524;1.342;2023-07-20T03:08:42;99293.41;;;22.88;42.16
38033;BME280;23841;48.524;1.342;2023-07-20T03:11:10;99294.28;;;22.89;42.37
38033;BME280;23841;48.524;1.342;2023-07-20T03:13:36;99290.78;;;22.87;42.61
38033;BME280;23841;48.524;1.342;2023-07-20T03:16:01;99291.69;;;22.87;42.47
38033;BME280;23841;48.524;1.342;2023-07-20T03:18:27;99299.91;;;22.86;42.70
38033;BME280;23841;48.524;1.342;2023-07-20T03:20:52;99296.31;;;22.85;42.54
38033;BME280;23841;48.524;1.342;2023-07-20T03:23:17;99291.13;;;22.82;42.79
38033;BME280;23841;48.524;1.342;2023-07-20T03:25:43;99289.28;;;22.82;42.67
38033;BME280;23841;48.524;1.342;2023-07-20T03:28:08;99294.69;;;22.82;42.58
38033;BME280;23841;48.524;1.342;2023-07-20T03:30:34;99297.41;;;22.82;42.55
38033;BME280;23841;48.524;1.342;2023-07-20T03:33:00;99285.84;;;22.80;42.84
38033;BME280;23841;48.524;1.342;2023-07-20T03:35:25;99288.53;;;22.80;42.61
38033;BME280;23841;48.524;1.342;2023-07-20T03:37:51;99289.50;;;22.79;42.92
38033;BME280;23841;48.524;1.342;2023-07-20T03:40:16;99287.81;;;22.78;42.64
38033;BME280;23841;48.524;1.342;2023-07-20T03:42:41;99280.66;;;22.77;42.69
38033;BME280;23841;48.524;1.342;2023-07-20T03:45:07;99291.47;;;22.77;42.64
38033;BME280;23841;48.524;1.342;2023-07-20T03:47:33;99284.31;;;22.76;42.95
38033;BME280;23841;48.524;1.342;2023-07-20T03:49:58;99284.31;;;22.76;42.70
38033;BME280;23841;48.524;1.342;2023-07-20T03:52:24;99279.03;;;22.75;42.74
38033;BME280;23841;48.524;1.342;2023-07-20T03:54:49;99284.44;;;22.75;42.98
38033;BME280;23841;48.524;1.342;2023-07-20T03:57:16;99278.19;;;22.74;42.62
38033;BME280;23841;48.524;1.342;2023-07-20T03:59:44;99283.69;;;22.73;42.69
38033;BME280;23841;48.524;1.342;2023-07-20T04:02:10;99282.81;;;22.72;42.64
38033;BME280;23841;48.524;1.342;2023-07-20T04:04:36;99284.69;;;22.72;42.76
38033;BME280;23841;48.524;1.342;2023-07-20T04:07:01;99287.38;;;22.72;42.74
38033;BME280;23841;48.524;1.342;2023-07-20T04:09:26;99288.22;;;22.72;43.03
38033;BME280;23841;48.524;1.342;2023-07-20T04:11:52;99288.47;;;22.69;42.81
38033;BME280;23841;48.524;1.342;2023-07-20T04:14:17;99286.72;;;22.68;42.84
38033;BME280;23841;48.524;1.342;2023-07-20T04:16:43;99286.72;;;22.68;42.89
38033;BME280;23841;48.524;1.342;2023-07-20T04:19:08;99285.88;;;22.67;42.91
38033;BME280;23841;48.524;1.342;2023-07-20T04:21:40;99289.53;;;22.66;42.89
38033;BME280;23841;48.524;1.342;2023-07-20T04:24:06;99294.97;;;22.66;43.01
38033;BME280;23841;48.524;1.342;2023-07-20T04:26:32;99292.38;;;22.65;42.90
38033;BME280;23841;48.524;1.342;2023-07-20T04:28:57;99294.22;;;22.64;42.93
38033;BME280;23841;48.524;1.342;2023-07-20T04:31:24;99296.03;;;22.64;42.90
38033;BME280;23841;48.524;1.342;2023-07-20T04:33:50;99290.63;;;22.64;42.89
38033;BME280;23841;48.524;1.342;2023-07-20T04:36:16;99299.72;;;22.63;42.76
38033;BME280;23841;48.524;1.342;2023-07-20T04:38:45;99298.00;;;22.62;43.05
38033;BME280;23841;48.524;1.342;2023-07-20T04:41:10;99300.72;;;22.62;43.09
38033;BME280;23841;48.524;1.342;2023-07-20T04:43:41;99301.69;;;22.61;42.91
38033;BME280;23841;48.524;1.342;2023-07-20T04:46:07;99297.25;;;22.60;42.88
38033;BME280;23841;48.524;1.342;2023-07-20T04:48:32;99297.25;;;22.60;42.82
38033;BME280;23841;48.524;1.342;2023-07-20T04:50:57;99295.50;;;22.59;43.03
38033;BME280;23841;48.524;1.342;2023-07-20T04:53:23;99301.91;;;22.58;43.07
38033;BME280;23841;48.524;1.342;2023-07-20T04:55:50;99297.47;;;22.57;43.28
38033;BME280;23841;48.524;1.342;2023-07-20T04:58:17;99305.59;;;22.57;43.08
38033;BME280;23841;48.524;1.342;2023-07-20T05:00:44;99295.72;;;22.56;43.22
38033;BME280;23841;48.524;1.342;2023-07-20T05:03:09;99295.84;;;22.54;43.38
38033;BME280;23841;48.524;1.342;2023-07-20T05:05:35;99302.22;;;22.53;43.19
38033;BME280;23841;48.524;1.342;2023-07-20T05:08:00;99298.53;;;22.54;43.23
38033;BME280;23841;48.524;1.342;2023-07-20T05:10:25;99295.94;;;22.53;43.41
38033;BME280;23841;48.524;1.342;2023-07-20T05:12:51;99289.69;;;22.52;43.47
38033;BME280;23841;48.524;1.342;2023-07-20T05:15:16;99286.09;;;22.52;43.30
38033;BME280;23841;48.524;1.342;2023-07-20T05:17:42;99279.06;;;22.49;43.38
38033;BME280;23841;48.524;1.342;2023-07-20T05:20:08;99282.66;;;22.49;43.33
38033;BME280;23841;48.524;1.342;2023-07-20T05:22:38;99288.06;;;22.49;43.58
38033;BME280;23841;48.524;1.342;2023-07-20T05:25:09;99291.72;;;22.48;43.49
38033;BME280;23841;48.524;1.342;2023-07-20T05:27:37;99283.59;;;22.48;43.48
38033;BME280;23841;48.524;1.342;2023-07-20T05:30:03;99285.56;;;22.46;43.64
38033;BME280;23841;48.524;1.342;2023-07-20T05:32:29;99275.72;;;22.45;43.72
38033;BME280;23841;48.524;1.342;2023-07-20T05:34:55;99282.88;;;22.46;43.49
38033;BME280;23841;48.524;1.342;2023-07-20T05:37:21;99281.25;;;22.44;43.81
38033;BME280;23841;48.524;1.342;2023-07-20T05:39:46;99279.41;;;22.44;43.90
38033;BME280;23841;48.524;1.342;2023-07-20T05:42:12;99281.13;;;22.45;43.81
38033;BME280;23841;48.524;1.342;2023-07-20T05:44:37;99284.81;;;22.44;44.03
38033;BME280;23841;48.524;1.342;2023-07-20T05:47:03;99283.94;;;22.44;43.93
38033;BME280;23841;48.524;1.342;2023-07-20T05:49:29;99286.66;;;22.44;44.11
38033;BME280;23841;48.524;1.342;2023-07-20T05:51:56;99283.06;;;22.43;43.98
38033;BME280;23841;48.524;1.342;2023-07-20T05:54:24;99285.78;;;22.43;44.05
38033;BME280;23841;48.524;1.342;2023-07-20T05:56:49;99284.91;;;22.43;44.10
38033;BME280;23841;48.524;1.342;2023-07-20T05:59:15;99282.31;;;22.41;44.10
38033;BME280;23841;48.524;1.342;2023-07-20T06:01:41;99284.25;;;22.39;44.23
38033;BME280;23841;48.524;1.342;2023-07-20T06:04:07;99278.84;;;22.39;44.54
38033;BME280;23841;48.524;1.342;2023-07-20T06:06:32;99282.44;;;22.40;44.36
38033;BME280;23841;48.524;1.342;2023-07-20T06:08:58;99276.13;;;22.39;44.37
38033;BME280;23841;48.524;1.342;2023-07-20T06:11:23;99275.28;;;22.39;44.64
38033;BME280;23841;48.524;1.342;2023-07-20T06:13:49;99278.09;;;22.37;44.31
38033;BME280;23841;48.524;1.342;2023-07-20T06:16:15;99274.44;;;22.38;44.74
38033;BME280;23841;48.524;1.342;2023-07-20T06:18:40;99281.66;;;22.38;44.49
38033;BME280;23841;48.524;1.342;2023-07-20T06:21:05;99274.63;;;22.35;44.79
38033;BME280;23841;48.524;1.342;2023-07-20T06:23:31;99275.63;;;22.34;44.51
38033;BME280;23841;48.524;1.342;2023-07-20T06:25:56;99274.63;;;22.35;44.59
38033;BME280;23841;48.524;1.342;2023-07-20T06:28:21;99274.75;;;22.33;44.66
38033;BME280;23841;48.524;1.342;2023-07-20T06:30:47;99271.91;;;22.35;44.71
38033;BME280;23841;48.524;1.342;2023-07-20T06:33:12;99274.75;;;22.33;44.99
38033;BME280;23841;48.524;1.342;2023-07-20T06:35:41;99264.88;;;22.32;45.01
38033;BME280;23841;48.524;1.342;2023-07-20T06:38:08;99270.28;;;22.32;44.90
38033;BME280;23841;48.524;1.342;2023-07-20T06:40:33;99273.00;;;22.32;45.13
38033;BME280;23841;48.524;1.342;2023-07-20T06:42:59;99280.22;;;22.32;45.01
38033;BME280;23841;48.524;1.342;2023-07-20T06:45:24;99280.22;;;22.32;45.24
38033;BME280;23841;48.524;1.342;2023-07-20T06:47:50;99270.47;;;22.29;45.34
38033;BME280;23841;48.524;1.342;2023-07-20T06:50:15;99269.63;;;22.29;45.36
38033;BME280;23841;48.524;1.342;2023-07-20T06:52:41;99275.91;;;22.29;45.70
38033;BME280;23841;48.524;1.342;2023-07-20T06:55:06;99278.72;;;22.28;46.17
38033;BME280;23841;48.524;1.342;2023-07-20T06:57:32;99277.84;;;22.27;45.89
38033;BME280;23841;48.524;1.342;2023-07-20T06:59:57;99274.28;;;22.27;46.11
38033;BME280;23841;48.524;1.342;2023-07-20T07:02:23;99271.59;;;22.27;46.57
38033;BME280;23841;48.524;1.342;2023-07-20T07:04:48;99275.25;;;22.26;46.72
38033;BME280;23841;48.524;1.342;2023-07-20T07:07:14;99277.00;;;22.27;46.94
38033;BME280;23841;48.524;1.342;2023-07-20T07:09:41;99273.53;;;22.25;46.84
38033;BME280;23841;48.524;1.342;2023-07-20T07:12:06;99278.94;;;22.25;47.05
38033;BME280;23841;48.524;1.342;2023-07-20T07:14:32;99278.09;;;22.24;47.17
38033;BME280;23841;48.524;1.342;2023-07-20T07:16:57;99271.78;;;22.24;47.38
38033;BME280;23841;48.524;1.342;2023-07-20T07:19:23;99275.50;;;22.23;47.31
38033;BME280;23841;48.524;1.342;2023-07-20T07:21:48;99267.25;;;22.24;47.19
38033;BME280;23841;48.524;1.342;2023-07-20T07:24:14;99266.38;;;22.24;47.32
38033;BME280;23841;48.524;1.342;2023-07-20T07:26:39;99262.94;;;22.22;47.59
38033;BME280;23841;48.524;1.342;2023-07-20T07:29:05;99269.19;;;22.22;47.68
38033;BME280;23841;48.524;1.342;2023-07-20T07:31:33;99269.09;;;22.24;47.82
38033;BME280;23841;48.524;1.342;2023-07-20T07:34:00;99272.78;;;22.23;47.65
38033;BME280;23841;48.524;1.342;2023-07-20T07:36:25;99269.19;;;22.22;47.80
38033;BME280;23841;48.524;1.342;2023-07-20T07:38:51;99273.75;;;22.22;47.74
38033;BME280;23841;48.524;1.342;2023-07-20T07:41:16;99272.88;;;22.21;47.61
38033;BME280;23841;48.524;1.342;2023-07-20T07:43:41;99269.41;;;22.19;47.55
38033;BME280;23841;48.524;1.342;2023-07-20T07:46:07;99271.03;;;22.22;47.59
38033;BME280;23841;48.524;1.342;2023-07-20T07:48:33;99263.78;;;22.22;47.54
38033;BME280;23841;48.524;1.342;2023-07-20T07:50:58;99261.19;;;22.21;47.34
38033;BME280;23841;48.524;1.342;2023-07-20T07:53:24;99265.63;;;22.22;47.36
38033;BME280;23841;48.524;1.342;2023-07-20T07:55:52;99257.63;;;22.20;47.21
38033;BME280;23841;48.524;1.342;2023-07-20T07:58:17;99255.03;;;22.19;47.06
38033;BME280;23841;48.524;1.342;2023-07-20T08:00:43;99255.78;;;22.21;47.37
38033;BME280;23841;48.524;1.342;2023-07-20T08:03:09;99256.56;;;22.23;47.31
38033;BME280;23841;48.524;1.342;2023-07-20T08:05:35;99252.09;;;22.22;47.39
38033;BME280;23841;48.524;1.342;2023-07-20T08:08:01;99246.69;;;22.22;47.16
38033;BME280;23841;48.524;1.342;2023-07-20T08:10:27;99253.06;;;22.21;46.63
38033;BME280;23841;48.524;1.342;2023-07-20T08:12:52;99247.53;;;22.22;47.13
38033;BME280;23841;48.524;1.342;2023-07-20T08:15:18;99252.09;;;22.22;47.05
38033;BME280;23841;48.524;1.342;2023-07-20T08:17:43;99256.63;;;22.21;46.88
38033;BME280;23841;48.524;1.342;2023-07-20T08:20:10;99256.56;;;22.23;46.87
38033;BME280;23841;48.524;1.342;2023-07-20T08:22:38;99253.84;;;22.23;46.68
38033;BME280;23841;48.524;1.342;2023-07-20T08:25:07;99251.34;;;22.20;46.42
38033;BME280;23841;48.524;1.342;2023-07-20T08:27:33;99254.69;;;22.23;46.25
38033;BME280;23841;48.524;1.342;2023-07-20T08:29:58;99254.69;;;22.23;46.20
38033;BME280;23841;48.524;1.342;2023-07-20T08:32:25;99256.44;;;22.24;46.08
38033;BME280;23841;48.524;1.342;2023-07-20T08:34:50;99257.28;;;22.25;46.19
38033;BME280;23841;48.524;1.342;2023-07-20T08:37:16;99253.63;;;22.26;46.33
38033;BME280;23841;48.524;1.342;2023-07-20T08:39:41;99260.78;;;22.27;46.11
38033;BME280;23841;48.524;1.342;2023-07-20T08:42:07;99250.91;;;22.26;46.31
38033;BME280;23841;48.524;1.342;2023-07-20T08:44:33;99248.09;;;22.27;46.17
38033;BME280;23841;48.524;1.342;2023-07-20T08:47:02;99249.94;;;22.27;46.02
38033;BME280;23841;48.524;1.342;2023-07-20T08:49:31;99244.53;;;22.27;46.20
38033;BME280;23841;48.524;1.342;2023-07-20T08:51:57;99239.97;;;22.27;45.79
38033;BME280;23841;48.524;1.342;2023-07-20T08:54:24;99239.97;;;22.27;45.78
38033;BME280;23841;48.524;1.342;2023-07-20T08:56:54;99251.66;;;22.28;46.00
38033;BME280;23841;48.524;1.342;2023-07-20T08:59:23;99242.56;;;22.29;46.17
38033;BME280;23841;48.524;1.342;2023-07-20T09:01:51;99255.13;;;22.30;45.84
38033;BME280;23841;48.524;1.342;2023-07-20T09:04:19;99246.00;;;22.31;45.89
38033;BME280;23841;48.524;1.342;2023-07-20T09:06:44;99248.66;;;22.32;45.91
38033;BME280;23841;48.524;1.342;2023-07-20T09:09:10;99245.94;;;22.32;45.88
38033;BME280;23841;48.524;1.342;2023-07-20T09:11:36;99251.44;;;22.31;45.92
38033;BME280;23841;48.524;1.342;2023-07-20T09:14:05;99242.25;;;22.33;45.68
38033;BME280;23841;48.524;1.342;2023-07-20T09:16:30;99232.41;;;22.32;46.03
38033;BME280;23841;48.524;1.342;2023-07-20T09:18:58;99243.03;;;22.36;45.80
38033;BME280;23841;48.524;1.342;2023-07-20T09:21:23;99241.19;;;22.36;45.82
38033;BME280;23841;48.524;1.342;2023-07-20T09:23:49;99236.75;;;22.35;45.84
38033;BME280;23841;48.524;1.342;2023-07-20T09:26:18;99241.31;;;22.35;45.55
38033;BME280;23841;48.524;1.342;2023-07-20T09:28:53;99235.88;;;22.35;45.57
38033;BME280;23841;48.524;1.342;2023-07-20T09:31:21;99233.06;;;22.36;45.72
38033;BME280;23841;48.524;1.342;2023-07-20T09:33:47;99230.38;;;22.36;45.68
38033;BME280;23841;48.524;1.342;2023-07-20T09:36:13;99234.69;;;22.39;45.54
38033;BME280;23841;48.524;1.342;2023-07-20T09:38:42;99227.53;;;22.38;45.68
38033;BME280;23841;48.524;1.342;2023-07-20T09:41:14;99230.13;;;22.39;45.87
38033;BME280;23841;48.524;1.342;2023-07-20T09:43:43;99230.13;;;22.39;45.57
38033;BME280;23841;48.524;1.342;2023-07-20T09:46:09;99224.63;;;22.41;45.55
38033;BME280;23841;48.524;1.342;2023-07-20T09:48:34;99217.38;;;22.41;45.61
38033;BME280;23841;48.524;1.342;2023-07-20T09:51:00;99214.66;;;22.41;45.59
38033;BME280;23841;48.524;1.342;2023-07-20T09:53:27;99216.41;;;22.42;45.57
38033;BME280;23841;48.524;1.342;2023-07-20T09:55:53;99213.69;;;22.42;45.44
38033;BME280;23841;48.524;1.342;2023-07-20T09:58:21;99201.13;;;22.41;45.37
38033;BME280;23841;48.524;1.342;2023-07-20T10:00:48;99203.84;;;22.41;45.38
38033;BME280;23841;48.524;1.342;2023-07-20T10:03:22;99206.44;;;22.43;45.26
38033;BME280;23841;48.524;1.342;2023-07-20T10:05:52;99206.22;;;22.46;45.31
38033;BME280;23841;48.524;1.342;2023-07-20T10:08:19;99205.34;;;22.45;45.34
38033;BME280;23841;48.524;1.342;2023-07-20T10:10:47;99204.47;;;22.45;45.53
38033;BME280;23841;48.524;1.342;2023-07-20T10:13:21;99202.75;;;22.44;45.23
38033;BME280;23841;48.524;1.342;2023-07-20T10:15:54;99196.47;;;22.43;45.12
38033;BME280;23841;48.524;1.342;2023-07-20T10:21:08;99197.22;;;22.45;45.33
38033;BME280;23841;48.524;1.342;2023-07-20T10:23:35;99192.69;;;22.46;45.51
38033;BME280;23841;48.524;1.342;2023-07-20T10:26:01;99192.56;;;22.47;45.25
38033;BME280;23841;48.524;1.342;2023-07-20T10:28:27;99189.84;;;22.47;45.44
38033;BME280;23841;48.524;1.342;2023-07-20T10:30:53;99194.28;;;22.48;45.23
38033;BME280;23841;48.524;1.342;2023-07-20T10:33:19;99185.31;;;22.48;45.15
38033;BME280;23841;48.524;1.342;2023-07-20T10:38:17;99187.38;;;22.44;45.35
38033;BME280;23841;48.524;1.342;2023-07-20T10:40:54;99177.31;;;22.46;45.40
38033;BME280;23841;48.524;1.342;2023-07-20T10:43:19;99178.19;;;22.47;45.33
38033;BME280;23841;48.524;1.342;2023-07-20T10:45:50;99176.19;;;22.49;45.36
38033;BME280;23841;48.524;1.342;2023-07-20T10:48:23;99172.66;;;22.48;45.40
38033;BME280;23841;48.524;1.342;2023-07-20T10:53:36;99170.72;;;22.50;45.23
38033;BME280;23841;48.524;1.342;2023-07-20T10:56:08;99180.41;;;22.53;45.22
38033;BME280;23841;48.524;1.342;2023-07-20T10:58:36;99179.56;;;22.53;45.31
38033;BME280;23841;48.524;1.342;2023-07-20T11:01:03;99177.72;;;22.53;45.14
38033;BME280;23841;48.524;1.342;2023-07-20T11:03:34;99180.41;;;22.53;45.48
38033;BME280;23841;48.524;1.342;2023-07-20T11:09:08;99168.50;;;22.56;45.41
38033;BME280;23841;48.524;1.342;2023-07-20T11:11:41;99168.50;;;22.56;45.38
38033;BME280;23841;48.524;1.342;2023-07-20T11:14:20;99159.41;;;22.57;45.56
38033;BME280;23841;48.524;1.342;2023-07-20T11:16:47;99162.00;;;22.58;45.27
38033;BME280;23841;48.524;1.342;2023-07-20T11:21:44;99163.75;;;22.59;45.18
38033;BME280;23841;48.524;1.342;2023-07-20T11:24:10;99152.03;;;22.59;45.16
38033;BME280;23841;48.524;1.342;2023-07-20T11:26:46;99155.50;;;22.61;44.99
38033;BME280;23841;48.524;1.342;2023-07-20T11:29:12;99155.50;;;22.61;45.10
38033;BME280;23841;48.524;1.342;2023-07-20T11:31:40;99159.84;;;22.63;45.33
38033;BME280;23841;48.524;1.342;2023-07-20T11:34:06;99160.69;;;22.64;45.24
38033;BME280;23841;48.524;1.342;2023-07-20T11:36:31;99149.84;;;22.64;45.23
38033;BME280;23841;48.524;1.342;2023-07-20T11:38:58;99141.00;;;22.62;45.28
38033;BME280;23841;48.524;1.342;2023-07-20T11:41:25;99132.75;;;22.63;45.38
38033;BME280;23841;48.524;1.342;2023-07-20T11:43:51;99132.75;;;22.63;45.24
38033;BME280;23841;48.524;1.342;2023-07-20T11:46:16;99125.25;;;22.67;45.35
38033;BME280;23841;48.524;1.342;2023-07-20T11:48:42;99125.06;;;22.70;45.35
38033;BME280;23841;48.524;1.342;2023-07-20T11:51:14;99124.06;;;22.71;45.36
38033;BME280;23841;48.524;1.342;2023-07-20T11:53:40;99120.38;;;22.72;45.17
38033;BME280;23841;48.524;1.342;2023-07-20T11:56:07;99128.50;;;22.72;45.26
38033;BME280;23841;48.524;1.342;2023-07-20T11:58:33;99126.63;;;22.73;45.03
38033;BME280;23841;48.524;1.342;2023-07-20T12:01:00;99128.38;;;22.74;45.15
38033;BME280;23841;48.524;1.342;2023-07-20T12:03:25;99128.38;;;22.74;45.02
38033;BME280;23841;48.524;1.342;2023-07-20T12:05:53;99118.44;;;22.74;45.10
38033;BME280;23841;48.524;1.342;2023-07-20T12:08:19;99118.44;;;22.74;45.05
38033;BME280;23841;48.524;1.342;2023-07-20T12:10:45;99129.03;;;22.77;44.99
38033;BME280;23841;48.524;1.342;2023-07-20T12:13:12;99121.88;;;22.76;45.15
38033;BME280;23841;48.524;1.342;2023-07-20T12:15:37;99114.50;;;22.78;44.99
38033;BME280;23841;48.524;1.342;2023-07-20T12:18:03;99112.53;;;22.80;44.97
38033;BME280;23841;48.524;1.342;2023-07-20T12:20:30;99119.69;;;22.81;45.17
38033;BME280;23841;48.524;1.342;2023-07-20T12:23:05;99105.16;;;22.82;45.32
38033;BME280;23841;48.524;1.342;2023-07-20T12:25:51;99114.03;;;22.84;45.20
38033;BME280;23841;48.524;1.342;2023-07-20T12:28:19;99113.19;;;22.84;45.40
38033;BME280;23841;48.524;1.342;2023-07-20T12:30:46;99108.63;;;22.84;45.19
38033;BME280;23841;48.524;1.342;2023-07-20T12:33:14;99094.09;;;22.86;44.98
38033;BME280;23841;48.524;1.342;2023-07-20T12:35:41;99100.25;;;22.88;45.10
38033;BME280;23841;48.524;1.342;2023-07-20T12:38:08;99096.56;;;22.89;45.29
38033;BME280;23841;48.524;1.342;2023-07-20T12:40:34;99093.75;;;22.90;45.01
38033;BME280;23841;48.524;1.342;2023-07-20T12:43:01;99095.47;;;22.91;45.14
38033;BME280;23841;48.524;1.342;2023-07-20T12:45:27;99088.97;;;22.94;44.96
38033;BME280;23841;48.524;1.342;2023-07-20T12:47:52;99084.53;;;22.93;45.30
38033;BME280;23841;48.524;1.342;2023-07-20T12:50:18;99087.97;;;22.95;45.00
38033;BME280;23841;48.524;1.342;2023-07-20T12:52:43;99080.72;;;22.95;44.99
38033;BME280;23841;48.524;1.342;2023-07-20T12:55:09;99082.56;;;22.95;45.00
38033;BME280;23841;48.524;1.342;2023-07-20T12:57:38;99078.88;;;22.96;45.24
38033;BME280;23841;48.524;1.342;2023-07-20T13:00:05;99076.94;;;22.98;44.89
38033;BME280;23841;48.524;1.342;2023-07-20T13:02:35;99066.94;;;22.98;45.31
38033;BME280;23841;48.524;1.342;2023-07-20T13:05:02;99056.97;;;22.99;45.21
38033;BME280;23841;48.524;1.342;2023-07-20T13:07:36;99064.00;;;23.01;44.95
38033;BME280;23841;48.524;1.342;2023-07-20T13:10:02;99059.53;;;23.00;44.72
38033;BME280;23841;48.524;1.342;2023-07-20T13:12:30;99061.16;;;23.03;44.74
38033;BME280;23841;48.524;1.342;2023-07-20T13:14:56;99063.88;;;23.03;44.74
38033;BME280;23841;48.524;1.342;2023-07-20T13:17:22;99065.59;;;23.04;45.12
38033;BME280;23841;48.524;1.342;2023-07-20T13:19:48;99067.34;;;23.05;44.70